Time;durP1;ratioP1;P1;durP2;ratioP2;P2;SDS_P1;SDS_P2;PMS_P1;PMS_P2;Temp;Humidity;BMP_temperature;BMP_pressure;BME280_temperature;BME280_humidity;BME280_pressure;Samples;Min_cycle;Max_cycle;Signal;HPM_P1;HPM_P2
2023/12/11 00:01:37;;;;;;;;;;;;;;;5.01;90.88;95173.38;5113417;28;1071;-64
2023/12/11 00:04:03;;;;;;;;;;;;;;;5.12;90.03;95182.22;5113680;28;1028;-64
2023/12/11 00:06:29;;;;;;;;;;;;;;;5.01;89.89;95183.97;5113176;28;1905;-64
2023/12/11 00:08:55;;;;;;;;;;;;;;;4.88;91.32;95186.78;5113516;28;1052;-63
2023/12/11 00:11:21;;;;;;;;;;;;;;;4.96;91.59;95190.63;5113250;28;1211;-65
2023/12/11 00:13:47;;;;;;;;;;;;;;;5.04;90.76;95188.16;5113588;28;1043;-65
2023/12/11 00:16:15;;;;;;;;;;;;;;;5.24;89.16;95199.78;5113296;28;996;-64
2023/12/11 00:18:41;;;;;;;;;;;;;;;5.11;89.80;95207.06;5113295;28;1051;-64
2023/12/11 00:21:07;;;;;;;;;;;;;;;5.11;89.66;95197.28;5113709;28;1040;-64
2023/12/11 00:23:33;;;;;;;;;;;;;;;5.19;89.35;95194.84;5113321;28;1028;-64
2023/12/11 00:25:59;;;;;;;;;;;;;;;5.15;89.24;95196.06;5113169;28;1123;-64
2023/12/11 00:28:25;;;;;;;;;;;;;;;5.18;89.19;95200.28;5112991;28;1914;-64
2023/12/11 00:30:51;;;;;;;;;;;;;;;5.13;89.51;95213.91;5113182;28;1039;-64
2023/12/11 00:33:18;;;;;;;;;;;;;;;5.13;89.55;95219.22;5115446;28;977;-64
2023/12/11 00:35:46;;;;;;;;;;;;;;;5.13;89.46;95213.91;5116897;28;1091;-64
2023/12/11 00:38:12;;;;;;;;;;;;;;;4.99;90.20;95209.75;5116824;28;1048;-64
2023/12/11 00:40:38;;;;;;;;;;;;;;;4.85;90.70;95205.56;5117213;28;1051;-65
2023/12/11 00:43:04;;;;;;;;;;;;;;;4.76;91.16;95211.63;5117127;28;1075;-65
2023/12/11 00:45:30;;;;;;;;;;;;;;;4.74;91.61;95208.25;5116672;28;1036;-64
2023/12/11 00:47:56;;;;;;;;;;;;;;;4.86;90.83;95204.59;5116727;28;1913;-64
2023/12/11 00:50:22;;;;;;;;;;;;;;;4.85;90.71;95199.44;5116566;28;960;-64
2023/12/11 00:52:48;;;;;;;;;;;;;;;4.97;90.07;95211.69;5149636;27;1079;-64
2023/12/11 00:55:14;;;;;;;;;;;;;;;5.01;90.08;95209.63;5116533;28;1232;-64
2023/12/11 00:57:40;;;;;;;;;;;;;;;5.12;89.46;95208.72;5116728;28;1132;-64
2023/12/11 01:00:06;;;;;;;;;;;;;;;5.12;89.34;95212.22;5116790;28;1027;-64
2023/12/11 01:02:32;;;;;;;;;;;;;;;5.17;89.23;95198.59;5116400;28;1055;-64
2023/12/11 01:04:58;;;;;;;;;;;;;;;5.13;89.03;95203.31;5116311;28;1095;-64
2023/12/11 01:07:24;;;;;;;;;;;;;;;5.09;89.11;95201.88;5116473;28;1914;-64
2023/12/11 01:09:50;;;;;;;;;;;;;;;5.02;89.40;95206.00;5116598;28;932;-64
2023/12/11 01:12:16;;;;;;;;;;;;;;;4.98;89.47;95207.22;5115957;28;1095;-65
2023/12/11 01:14:42;;;;;;;;;;;;;;;4.98;89.23;95204.56;5116782;28;992;-65
2023/12/11 01:17:08;;;;;;;;;;;;;;;5.02;88.67;95201.53;5116248;28;956;-64
2023/12/11 01:19:34;;;;;;;;;;;;;;;4.77;88.98;95207.16;5115936;28;1058;-64
2023/12/11 01:22:00;;;;;;;;;;;;;;;4.44;90.89;95203.59;5114816;28;995;-64
2023/12/11 01:24:26;;;;;;;;;;;;;;;4.40;91.38;95208.31;5116163;28;977;-64
2023/12/11 01:26:52;;;;;;;;;;;;;;;4.41;91.42;95202.03;5115828;28;1913;-64
2023/12/11 01:29:18;;;;;;;;;;;;;;;4.40;91.88;95197.72;5115953;28;935;-64
2023/12/11 01:31:44;;;;;;;;;;;;;;;4.40;91.62;95210.97;5116032;28;1051;-64
2023/12/11 01:34:10;;;;;;;;;;;;;;;4.35;91.59;95201.72;5115783;28;964;-64
2023/12/11 01:36:36;;;;;;;;;;;;;;;4.33;91.21;95198.34;5115790;28;1253;-64
2023/12/11 01:39:02;;;;;;;;;;;;;;;4.16;90.84;95203.16;5115732;28;1123;-64
2023/12/11 01:41:28;;;;;;;;;;;;;;;4.09;92.43;95207.25;5115758;28;1071;-64
2023/12/11 01:43:55;;;;;;;;;;;;;;;4.18;91.72;95211.81;5114690;28;1090;-64
2023/12/11 01:46:21;;;;;;;;;;;;;;;4.11;91.35;95203.50;5115638;28;1285;-64
2023/12/11 01:48:49;;;;;;;;;;;;;;;4.01;91.33;95201.72;5115365;28;1963;-64
2023/12/11 01:51:15;;;;;;;;;;;;;;;3.71;92.78;95200.47;5115404;28;1052;-64
2023/12/11 01:53:41;;;;;;;;;;;;;;;3.78;93.21;95206.16;5115573;28;1173;-64
2023/12/11 01:56:08;;;;;;;;;;;;;;;3.93;92.42;95204.97;5115704;28;968;-64
2023/12/11 01:58:34;;;;;;;;;;;;;;;3.97;92.26;95209.03;5115378;28;973;-64
2023/12/11 02:01:00;;;;;;;;;;;;;;;3.99;92.32;95204.47;5115270;28;1048;-64
2023/12/11 02:03:26;;;;;;;;;;;;;;;4.07;92.08;95201.22;5115358;28;1063;-64
2023/12/11 02:05:52;;;;;;;;;;;;;;;4.14;91.46;95198.97;5115499;28;980;-63
2023/12/11 02:08:18;;;;;;;;;;;;;;;4.13;91.31;95195.44;5115174;28;1959;-64
2023/12/11 02:10:45;;;;;;;;;;;;;;;4.09;91.60;95201.94;5115049;28;1226;-65
2023/12/11 02:13:11;;;;;;;;;;;;;;;4.10;92.10;95203.66;5113984;28;1040;-65
2023/12/11 02:15:37;;;;;;;;;;;;;;;4.09;91.71;95209.88;5115297;28;976;-65
2023/12/11 02:18:03;;;;;;;;;;;;;;;4.11;91.39;95211.44;5115236;28;964;-65
2023/12/11 02:20:29;;;;;;;;;;;;;;;3.65;91.20;95222.09;5114813;28;1055;-64
2023/12/11 02:22:57;;;;;;;;;;;;;;;3.59;92.51;95214.66;5115010;28;1050;-64
2023/12/11 02:25:24;;;;;;;;;;;;;;;3.64;92.87;95229.22;5115015;28;1079;-64
2023/12/11 02:27:50;;;;;;;;;;;;;;;3.75;92.39;95223.06;5114716;28;1902;-64
2023/12/11 02:30:16;;;;;;;;;;;;;;;3.83;91.97;95227.78;5114740;28;988;-65
2023/12/11 02:32:42;;;;;;;;;;;;;;;3.84;91.66;95230.31;5114623;28;964;-65
2023/12/11 02:35:08;;;;;;;;;;;;;;;3.79;91.75;95237.75;5113693;28;999;-65
2023/12/11 02:37:34;;;;;;;;;;;;;;;3.84;92.13;95240.06;5114694;28;1050;-65
2023/12/11 02:40:00;;;;;;;;;;;;;;;4.00;91.65;95235.25;5114843;28;1067;-65
2023/12/11 02:42:26;;;;;;;;;;;;;;;3.97;92.19;95232.03;5114522;28;1043;-65
2023/12/11 02:44:52;;;;;;;;;;;;;;;3.87;91.41;95226.56;5114392;28;1111;-64
2023/12/11 02:47:18;;;;;;;;;;;;;;;3.49;92.73;95214.47;5114295;28;1993;-64
2023/12/11 02:49:44;;;;;;;;;;;;;;;3.43;93.65;95225.53;5114439;28;1108;-64
2023/12/11 02:52:10;;;;;;;;;;;;;;;3.34;94.05;95213.88;5114605;28;1035;-65
2023/12/11 02:54:36;;;;;;;;;;;;;;;3.31;94.52;95214.91;5114519;28;1251;-64
2023/12/11 02:57:02;;;;;;;;;;;;;;;3.36;94.21;95217.22;5114270;28;1050;-65
2023/12/11 02:59:28;;;;;;;;;;;;;;;3.57;93.98;95220.06;5114229;28;1039;-64
2023/12/11 03:01:54;;;;;;;;;;;;;;;3.69;93.13;95219.09;5114481;28;1050;-65
2023/12/11 03:04:20;;;;;;;;;;;;;;;3.67;92.76;95213.09;5114353;28;1012;-65
2023/12/11 03:06:46;;;;;;;;;;;;;;;3.38;92.87;95210.03;5113997;28;1905;-63
2023/12/11 03:09:12;;;;;;;;;;;;;;;3.32;93.55;95213.97;5114131;28;1046;-64
2023/12/11 03:11:38;;;;;;;;;;;;;;;3.26;94.27;95217.09;5114206;28;1068;-65
2023/12/11 03:14:04;;;;;;;;;;;;;;;3.46;93.60;95212.09;5113981;28;1052;-64
2023/12/11 03:16:30;;;;;;;;;;;;;;;3.53;93.17;95218.59;5112718;28;1142;-65
2023/12/11 03:18:55;;;;;;;;;;;;;;;3.44;93.00;95214.84;5112694;28;993;-65
2023/12/11 03:21:21;;;;;;;;;;;;;;;3.42;92.38;95213.28;5114096;28;1052;-63
2023/12/11 03:23:48;;;;;;;;;;;;;;;3.45;92.96;95221.84;5114080;28;1065;-65
2023/12/11 03:26:14;;;;;;;;;;;;;;;3.52;92.45;95225.66;5114118;28;944;-65
2023/12/11 03:28:40;;;;;;;;;;;;;;;3.52;91.79;95225.66;5114019;28;1988;-65
2023/12/11 03:31:06;;;;;;;;;;;;;;;3.48;91.95;95228.69;5114065;28;1047;-65
2023/12/11 03:33:31;;;;;;;;;;;;;;;3.41;91.42;95223.00;5113800;28;959;-65
2023/12/11 03:35:57;;;;;;;;;;;;;;;3.41;91.38;95227.44;5113758;28;1028;-65
2023/12/11 03:38:23;;;;;;;;;;;;;;;3.32;90.89;95216.63;5113579;28;1032;-64
2023/12/11 03:40:50;;;;;;;;;;;;;;;3.05;90.90;95221.31;5113936;28;979;-65
2023/12/11 03:43:16;;;;;;;;;;;;;;;2.76;92.04;95216.38;5113893;28;973;-65
2023/12/11 03:45:42;;;;;;;;;;;;;;;2.72;92.75;95215.75;5113854;28;1051;-65
2023/12/11 03:48:08;;;;;;;;;;;;;;;2.77;92.72;95211.94;5113452;28;1985;-64
2023/12/11 03:50:34;;;;;;;;;;;;;;;2.66;93.85;95205.66;5113701;28;976;-64
2023/12/11 03:53:00;;;;;;;;;;;;;;;2.77;93.51;95211.94;5113784;28;1085;-65
2023/12/11 03:55:26;;;;;;;;;;;;;;;2.76;93.32;95215.53;5113662;28;1177;-64
2023/12/11 03:57:52;;;;;;;;;;;;;;;2.81;92.96;95211.59;5113407;28;1102;-65
2023/12/11 04:00:18;;;;;;;;;;;;;;;2.78;92.99;95213.63;5113458;28;1043;-64
2023/12/11 04:02:44;;;;;;;;;;;;;;;2.62;92.10;95212.09;5113415;28;1066;-65
2023/12/11 04:05:10;;;;;;;;;;;;;;;2.53;91.29;95199.56;5113397;28;1108;-65
2023/12/11 04:07:36;;;;;;;;;;;;;;;2.43;91.18;95203.81;5114714;28;1914;-64
2023/12/11 04:10:03;;;;;;;;;;;;;;;2.11;91.26;95207.81;5117502;28;1049;-64
2023/12/11 04:12:29;;;;;;;;;;;;;;;2.05;92.45;95212.66;5117264;28;1175;-63
2023/12/11 04:14:55;;;;;;;;;;;;;;;2.07;92.25;95219.53;5117700;28;999;-68
2023/12/11 04:17:21;;;;;;;;;;;;;;;1.91;91.88;95213.63;5117578;28;1051;-67
2023/12/11 04:19:47;;;;;;;;;;;;;;;1.84;92.56;95204.44;5117655;28;981;-68
2023/12/11 04:22:13;;;;;;;;;;;;;;;1.89;93.11;95204.97;5117200;28;1052;-67
2023/12/11 04:24:39;;;;;;;;;;;;;;;2.04;92.81;95198.63;5116301;28;992;-68
2023/12/11 04:27:05;;;;;;;;;;;;;;;1.90;92.21;95207.50;5117249;28;2000;-67
2023/12/11 04:29:31;;;;;;;;;;;;;;;1.74;92.46;95207.72;5115917;28;1015;-66
2023/12/11 04:31:57;;;;;;;;;;;;;;;1.59;93.41;95205.31;5117040;28;1066;-68
2023/12/11 04:34:24;;;;;;;;;;;;;;;1.75;93.94;95201.50;5117123;28;996;-65
2023/12/11 04:36:50;;;;;;;;;;;;;;;2.07;93.71;95203.69;5117167;28;1015;-64
2023/12/11 04:39:16;;;;;;;;;;;;;;;2.31;93.04;95202.91;5116995;28;1015;-58
2023/12/11 04:41:42;;;;;;;;;;;;;;;2.41;92.54;95206.56;5116835;28;1103;-64
2023/12/11 04:44:07;;;;;;;;;;;;;;;2.36;91.49;95216.63;5117340;28;1028;-65
2023/12/11 04:46:33;;;;;;;;;;;;;;;1.81;91.78;95215.22;5116856;28;1913;-64
2023/12/11 04:48:59;;;;;;;;;;;;;;;1.63;92.86;95219.97;5116976;28;1055;-63
2023/12/11 04:51:25;;;;;;;;;;;;;;;1.78;93.22;95218.06;5116524;28;1040;-63
2023/12/11 04:53:51;;;;;;;;;;;;;;;1.79;93.57;95214.50;5116623;28;1176;-63
2023/12/11 04:56:17;;;;;;;;;;;;;;;1.90;93.38;95211.94;5116518;28;1068;-63
2023/12/11 04:58:43;;;;;;;;;;;;;;;1.74;92.61;95202.44;5116816;28;968;-63
2023/12/11 05:01:10;;;;;;;;;;;;;;;1.52;92.94;95202.25;5116560;28;1046;-62
2023/12/11 05:03:36;;;;;;;;;;;;;;;1.67;93.61;95205.63;5115291;28;1048;-63
2023/12/11 05:06:02;;;;;;;;;;;;;;;1.51;92.85;95208.47;5116458;28;1091;-63
2023/12/11 05:08:28;;;;;;;;;;;;;;;1.43;93.30;95214.25;5116309;28;1996;-63
2023/12/11 05:10:54;;;;;;;;;;;;;;;1.40;93.43;95225.00;5116509;27;1031;-64
2023/12/11 05:13:20;;;;;;;;;;;;;;;1.31;93.98;95222.97;5115111;28;1025;-63
2023/12/11 05:15:46;;;;;;;;;;;;;;;1.33;93.55;95231.66;5115264;28;1028;-63
2023/12/11 05:18:12;;;;;;;;;;;;;;;1.34;93.76;95242.06;5115819;28;997;-63
2023/12/11 05:20:38;;;;;;;;;;;;;;;1.30;94.54;95235.31;5115500;28;1063;-63
2023/12/11 05:23:04;;;;;;;;;;;;;;;1.53;94.46;95227.66;5116388;28;1004;-64
2023/12/11 05:25:30;;;;;;;;;;;;;;;1.74;93.67;95226.16;5116079;28;1036;-63
2023/12/11 05:27:56;;;;;;;;;;;;;;;1.57;92.56;95221.22;5116150;28;2025;-64
2023/12/11 05:30:22;;;;;;;;;;;;;;;1.33;93.48;95223.75;5114799;28;1072;-64
2023/12/11 05:32:48;;;;;;;;;;;;;;;1.17;94.52;95224.75;5114725;28;995;-64
2023/12/11 05:35:14;;;;;;;;;;;;;;;1.41;92.98;95229.34;5115031;28;980;-66
2023/12/11 05:37:40;;;;;;;;;;;;;;;1.49;93.02;95234.91;5116096;28;1036;-67
2023/12/11 05:40:07;;;;;;;;;;;;;;;1.56;92.66;95252.00;5116231;28;1023;-66
2023/12/11 05:42:33;;;;;;;;;;;;;;;1.54;92.41;95253.06;5116043;28;1055;-66
2023/12/11 05:44:59;;;;;;;;;;;;;;;1.26;91.98;95257.53;5115739;28;1111;-67
2023/12/11 05:47:25;;;;;;;;;;;;;;;1.27;92.92;95268.91;5115838;28;1976;-66
2023/12/11 05:49:51;;;;;;;;;;;;;;;1.40;92.47;95258.41;5115938;27;984;-66
2023/12/11 05:52:17;;;;;;;;;;;;;;;1.45;92.37;95259.78;5114417;28;1091;-66
2023/12/11 05:54:43;;;;;;;;;;;;;;;1.25;91.98;95255.00;5115676;28;1149;-65
2023/12/11 05:57:09;;;;;;;;;;;;;;;1.21;91.94;95257.00;5115505;28;1056;-66
2023/12/11 05:59:36;;;;;;;;;;;;;;;1.30;92.78;95252.91;5115466;28;1315;-66
2023/12/11 06:02:02;;;;;;;;;;;;;;;1.49;92.63;95256.00;5115683;28;1000;-65
2023/12/11 06:04:28;;;;;;;;;;;;;;;1.61;92.59;95272.75;5115084;28;1070;-65
2023/12/11 06:06:54;;;;;;;;;;;;;;;1.62;92.44;95281.53;5113520;28;1986;-64
2023/12/11 06:09:20;;;;;;;;;;;;;;;1.39;90.27;95269.91;5113671;28;1144;-64
2023/12/11 06:11:46;;;;;;;;;;;;;;;1.08;92.01;95272.78;5115083;28;1230;-65
2023/12/11 06:14:12;;;;;;;;;;;;;;;1.31;92.37;95276.53;5113993;28;1001;-65
2023/12/11 06:16:38;;;;;;;;;;;;;;;1.59;92.76;95269.38;5115382;28;1119;-65
2023/12/11 06:19:04;;;;;;;;;;;;;;;1.71;90.82;95265.94;5114246;28;933;-64
2023/12/11 06:21:30;;;;;;;;;;;;;;;1.60;89.89;95262.34;5115244;28;1124;-65
2023/12/11 06:23:56;;;;;;;;;;;;;;;1.51;91.31;95264.63;5115002;28;1052;-64
2023/12/11 06:26:28;;;;;;;;;;;;;;;1.62;92.31;95271.00;5114861;28;1040;-64
2023/12/11 06:28:54;;;;;;;;;;;;;;;1.85;92.28;95269.44;5114798;28;1910;-64
2023/12/11 06:31:20;;;;;;;;;;;;;;;3.35;85.88;95275.50;5114309;28;1127;-63
2023/12/11 06:33:46;;;;;;;;;;;;;;;5.43;76.22;95276.81;5115010;28;1055;-63
2023/12/11 06:36:12;;;;;;;;;;;;;;;7.18;68.04;95278.75;5113629;28;1135;-65
2023/12/11 06:38:39;;;;;;;;;;;;;;;8.06;62.22;95289.41;5114656;28;1091;-63
2023/12/11 06:41:05;;;;;;;;;;;;;;;9.67;57.38;95295.31;5114991;28;976;-65
2023/12/11 06:43:31;;;;;;;;;;;;;;;11.17;52.84;95306.91;5114565;28;972;-64
2023/12/11 06:45:57;;;;;;;;;;;;;;;11.21;49.34;95309.13;5114815;28;1012;-63
2023/12/11 06:48:23;;;;;;;;;;;;;;;11.33;49.11;95296.28;5113486;28;2047;-61
2023/12/11 06:50:49;;;;;;;;;;;;;;;11.70;48.74;95319.16;5114624;28;1054;-62
2023/12/11 06:53:15;;;;;;;;;;;;;;;12.68;47.15;95335.31;5113143;28;1107;-62
2023/12/11 06:55:41;;;;;;;;;;;;;;;13.81;44.06;95342.38;5113054;28;1244;-62
2023/12/11 06:58:07;;;;;;;;;;;;;;;14.36;42.32;95353.94;5113179;28;1019;-61
2023/12/11 07:00:33;;;;;;;;;;;;;;;14.94;42.90;95364.25;5114178;28;1043;-62
2023/12/11 07:02:59;;;;;;;;;;;;;;;15.16;41.48;95357.97;5114552;28;987;-63
2023/12/11 07:05:25;;;;;;;;;;;;;;;15.70;40.71;95359.53;5114119;28;1044;-62
2023/12/11 07:07:51;;;;;;;;;;;;;;;15.79;40.78;95361.13;5112932;28;1905;-61
2023/12/11 07:10:17;;;;;;;;;;;;;;;16.17;39.16;95377.13;5114108;28;1015;-61
2023/12/11 07:12:46;;;;;;;;;;;;;;;16.34;38.83;95383.13;5097395;28;1202;-63
2023/12/11 07:15:12;;;;;;;;;;;;;;;16.62;38.84;95370.72;5113997;28;1245;-62
2023/12/11 07:17:38;;;;;;;;;;;;;;;16.19;39.25;95353.50;5114051;28;1029;-61
2023/12/11 07:20:05;;;;;;;;;;;;;;;15.70;40.27;95375.69;5114239;28;1056;-61
2023/12/11 07:22:33;;;;;;;;;;;;;;;15.41;40.84;95368.47;5113968;28;1087;-61
2023/12/11 07:24:59;;;;;;;;;;;;;;;14.19;43.18;95374.75;5114136;28;1062;-59
2023/12/11 08:42:17;;;;;;;;;;;;;;;6.49;77.83;95308.69;5083927;28;1200;-63
2023/12/11 08:44:44;;;;;;;;;;;;;;;6.72;76.76;95301.41;5091506;28;1074;-64
2023/12/11 08:47:10;;;;;;;;;;;;;;;6.62;76.86;95296.91;5092384;28;1906;-64
2023/12/11 08:49:36;;;;;;;;;;;;;;;6.82;76.81;95299.63;5092825;28;981;-64
2023/12/11 08:52:02;;;;;;;;;;;;;;;6.99;75.82;95295.50;5092847;28;990;-64
2023/12/11 08:54:28;;;;;;;;;;;;;;;7.33;74.92;95295.97;5103078;28;1233;-64
2023/12/11 08:56:54;;;;;;;;;;;;;;;7.31;74.42;95294.44;5116514;28;968;-64
2023/12/11 08:59:20;;;;;;;;;;;;;;;7.39;74.69;95286.63;5116493;28;1011;-63
2023/12/11 09:01:46;;;;;;;;;;;;;;;7.47;74.38;95286.75;5116310;28;1052;-63
2023/12/11 09:04:12;;;;;;;;;;;;;;;7.60;73.86;95279.34;5116392;27;1024;-62
2023/12/11 09:06:38;;;;;;;;;;;;;;;7.66;74.82;95267.28;5116370;28;1087;-62
2023/12/11 09:09:04;;;;;;;;;;;;;;;7.87;73.01;95260.97;5116406;28;1905;-63
2023/12/11 09:11:30;;;;;;;;;;;;;;;7.77;73.26;95245.03;5116464;28;1035;-61
2023/12/11 09:13:56;;;;;;;;;;;;;;;7.70;74.18;95250.09;5116498;28;1055;-62
2023/12/11 09:16:22;;;;;;;;;;;;;;;7.91;74.10;95252.59;5115943;28;1043;-62
2023/12/11 09:18:48;;;;;;;;;;;;;;;8.17;72.62;95250.13;5116406;28;1048;-62
2023/12/11 09:21:14;;;;;;;;;;;;;;;8.63;69.51;95252.13;5116119;28;977;-61
2023/12/11 09:23:40;;;;;;;;;;;;;;;8.85;67.94;95243.75;5116197;28;1038;-61
2023/12/11 09:26:06;;;;;;;;;;;;;;;9.16;66.33;95244.28;5116097;28;1026;-60
2023/12/11 09:28:32;;;;;;;;;;;;;;;9.27;67.28;95242.38;5115871;28;1990;-61
2023/12/11 09:30:58;;;;;;;;;;;;;;;9.29;65.99;95238.56;5116097;28;988;-61
2023/12/11 09:33:24;;;;;;;;;;;;;;;9.56;64.47;95234.16;5116048;28;1059;-60
2023/12/11 09:35:51;;;;;;;;;;;;;;;9.60;63.28;95230.22;5115984;28;1032;-61
2023/12/11 09:38:17;;;;;;;;;;;;;;;9.52;63.89;95222.97;5116001;27;1004;-60
2023/12/11 09:40:43;;;;;;;;;;;;;;;9.80;63.78;95222.84;5115909;28;1079;-61
2023/12/11 09:43:09;;;;;;;;;;;;;;;9.84;61.93;95218.88;5115703;28;1020;-61
2023/12/11 09:45:36;;;;;;;;;;;;;;;10.18;62.06;95218.13;5114426;28;1064;-60
2023/12/11 09:48:03;;;;;;;;;;;;;;;10.40;60.12;95218.63;5115606;28;1917;-60
2023/12/11 09:50:29;;;;;;;;;;;;;;;10.82;59.44;95223.19;5115780;28;996;-60
2023/12/11 09:52:56;;;;;;;;;;;;;;;11.06;58.75;95219.75;5115569;28;1088;-60
2023/12/11 09:55:22;;;;;;;;;;;;;;;10.83;57.17;95216.81;5115617;28;1302;-60
2023/12/11 09:57:48;;;;;;;;;;;;;;;10.76;58.72;95205.94;5115483;28;980;-59
2023/12/11 10:00:14;;;;;;;;;;;;;;;10.99;57.80;95202.69;5115560;28;1072;-60
2023/12/11 10:02:40;;;;;;;;;;;;;;;11.39;56.82;95201.94;5115349;28;1032;-59
2023/12/11 10:05:07;;;;;;;;;;;;;;;11.57;54.74;95201.78;5114865;28;1058;-59
2023/12/11 10:07:34;;;;;;;;;;;;;;;11.68;56.23;95197.94;5115389;28;1992;-60
2023/12/11 10:10:15;;;;;;;;;;;;;;;11.69;55.61;95203.16;5115188;28;1111;-60
2023/12/11 10:12:42;;;;;;;;;;;;;;;11.54;55.61;95202.13;5115350;28;1017;-60
2023/12/11 10:15:08;;;;;;;;;;;;;;;11.27;55.36;95203.28;5115333;28;987;-60
2023/12/11 10:17:34;;;;;;;;;;;;;;;11.44;55.22;95207.66;5114088;28;1040;-60
2023/12/11 10:20:00;;;;;;;;;;;;;;;11.75;54.67;95217.72;5115026;28;1083;-60
2023/12/11 10:22:27;;;;;;;;;;;;;;;11.96;53.53;95213.72;5114993;28;980;-60
2023/12/11 10:24:54;;;;;;;;;;;;;;;12.02;53.72;95213.06;5114875;28;1088;-60
2023/12/11 10:27:23;;;;;;;;;;;;;;;11.67;53.00;95201.66;5114687;28;1992;-59
2023/12/11 10:30:08;;;;;;;;;;;;;;;11.74;53.41;95189.22;5114901;28;1091;-60
2023/12/11 10:32:34;;;;;;;;;;;;;;;11.82;52.09;95191.06;5114805;28;1000;-59
2023/12/11 10:35:00;;;;;;;;;;;;;;;11.85;53.37;95188.06;5114972;28;1039;-59
2023/12/11 10:37:32;;;;;;;;;;;;;;;11.69;53.04;95187.06;5114612;28;1070;-60
2023/12/11 10:39:58;;;;;;;;;;;;;;;11.88;54.06;95175.19;5114541;28;1048;-60
2023/12/11 10:42:25;;;;;;;;;;;;;;;11.55;53.55;95170.81;5114382;28;1198;-60
2023/12/11 10:44:51;;;;;;;;;;;;;;;11.78;53.80;95174.53;5114461;27;1059;-60
2023/12/11 10:47:18;;;;;;;;;;;;;;;11.93;52.85;95179.22;5114353;28;1906;-59
2023/12/11 10:49:44;;;;;;;;;;;;;;;12.37;51.76;95184.16;5114710;28;1151;-60
2023/12/11 10:52:10;;;;;;;;;;;;;;;12.23;52.43;95193.75;5114396;28;972;-59
2023/12/11 10:54:43;;;;;;;;;;;;;;;12.13;52.19;95185.91;5114453;28;1152;-59
2023/12/11 10:57:16;;;;;;;;;;;;;;;12.19;52.23;95179.84;5114577;28;905;-59
2023/12/11 10:59:43;;;;;;;;;;;;;;;12.13;51.77;95174.34;5114505;28;988;-59
2023/12/11 11:02:11;;;;;;;;;;;;;;;12.09;51.54;95163.13;5114440;28;1046;-59
2023/12/11 11:04:39;;;;;;;;;;;;;;;12.45;52.24;95162.72;5114094;28;1057;-59
2023/12/11 11:07:23;;;;;;;;;;;;;;;12.01;51.66;95157.78;5114251;28;1986;-59
2023/12/11 11:10:08;;;;;;;;;;;;;;;11.92;51.95;95138.22;5114177;28;970;-59
2023/12/11 11:12:40;;;;;;;;;;;;;;;11.94;52.87;95132.69;5112985;28;972;-60
2023/12/11 11:15:08;;;;;;;;;;;;;;;11.84;52.27;95133.66;5114015;28;968;-59
2023/12/11 11:17:52;;;;;;;;;;;;;;;12.18;50.90;95137.13;5114001;28;1031;-60
2023/12/11 11:20:19;;;;;;;;;;;;;;;11.97;51.27;95137.69;5114004;28;1007;-60
2023/12/11 11:22:45;;;;;;;;;;;;;;;11.52;52.47;95126.50;5113967;28;1063;-60
2023/12/11 11:25:30;;;;;;;;;;;;;;;11.81;52.74;95112.56;5114000;28;976;-60
2023/12/11 11:27:56;;;;;;;;;;;;;;;11.65;52.26;95124.13;5113968;28;1982;-60
2023/12/11 11:30:40;;;;;;;;;;;;;;;11.96;53.85;95126.13;5113728;28;964;-60
2023/12/11 11:33:08;;;;;;;;;;;;;;;11.83;50.96;95126.63;5113692;28;1024;-60
2023/12/11 11:35:43;;;;;;;;;;;;;;;11.67;51.62;95115.94;5113709;28;968;-60
2023/12/11 11:38:09;;;;;;;;;;;;;;;11.94;53.47;95116.59;5113687;28;1066;-60
2023/12/11 11:40:36;;;;;;;;;;;;;;;11.73;52.36;95109.91;5114015;28;988;-59
2023/12/11 11:43:03;;;;;;;;;;;;;;;11.72;52.38;95110.91;5113536;28;1092;-59
2023/12/11 11:45:29;;;;;;;;;;;;;;;11.35;53.50;95101.56;5113498;28;1012;-59
2023/12/11 11:47:55;;;;;;;;;;;;;;;11.18;53.47;95095.34;5112501;28;1990;-59
2023/12/11 11:50:21;;;;;;;;;;;;;;;11.08;53.67;95105.41;5112342;28;1011;-60
2023/12/11 11:52:53;;;;;;;;;;;;;;;11.47;53.38;95102.06;5113512;28;1106;-60
2023/12/11 11:55:26;;;;;;;;;;;;;;;11.47;52.86;95102.88;5113244;28;1173;-59
2023/12/11 11:57:53;;;;;;;;;;;;;;;11.93;53.70;95093.50;5113621;28;1992;-56
2023/12/11 12:00:25;;;;;;;;;;;;;;;12.07;52.76;95096.31;5113278;28;1083;-56
2023/12/11 12:03:10;;;;;;;;;;;;;;;11.89;51.83;95104.56;5113383;28;1051;-56
2023/12/11 12:05:37;;;;;;;;;;;;;;;11.82;52.70;95095.50;5113451;28;981;-57
2023/12/11 12:08:09;;;;;;;;;;;;;;;11.99;51.83;95100.84;5113312;28;1989;-57
2023/12/11 12:10:35;;;;;;;;;;;;;;;11.90;53.04;95079.44;5113607;28;1059;-56
2023/12/11 12:13:02;;;;;;;;;;;;;;;11.59;52.03;95075.75;5113606;28;968;-57
2023/12/11 12:15:28;;;;;;;;;;;;;;;11.47;52.34;95069.91;5113630;28;1003;-56
2023/12/11 12:18:04;;;;;;;;;;;;;;;11.49;52.75;95055.34;5113436;28;1104;-56
2023/12/11 12:20:30;;;;;;;;;;;;;;;11.65;53.92;95041.13;5113609;28;1050;-57
2023/12/11 12:22:57;;;;;;;;;;;;;;;11.42;53.04;95030.28;5113435;28;1059;-57
2023/12/11 12:25:23;;;;;;;;;;;;;;;11.55;53.04;95026.25;5113154;28;905;-57
2023/12/11 12:27:51;;;;;;;;;;;;;;;11.37;53.19;95019.25;5113138;28;1996;-57
2023/12/11 12:30:19;;;;;;;;;;;;;;;11.22;54.00;95008.38;5117062;28;1102;-57
2023/12/11 12:32:49;;;;;;;;;;;;;;;10.91;54.48;94992.19;5116999;28;1075;-57
2023/12/11 12:35:16;;;;;;;;;;;;;;;10.84;54.73;94983.97;5117239;28;968;-57
2023/12/11 12:37:43;;;;;;;;;;;;;;;10.88;55.33;94976.44;5117138;28;1067;-58
2023/12/11 12:40:12;;;;;;;;;;;;;;;10.97;54.14;94974.63;5116142;28;1574;-58
2023/12/11 12:42:38;;;;;;;;;;;;;;;10.98;54.70;94969.09;5116819;28;1226;-59
2023/12/11 12:45:05;;;;;;;;;;;;;;;11.08;56.06;94963.59;5117205;28;991;-58
2023/12/11 12:47:32;;;;;;;;;;;;;;;10.93;54.84;94956.22;5116632;28;2291;-59
2023/12/11 12:49:58;;;;;;;;;;;;;;;10.93;54.37;94963.41;5117045;28;1052;-59
2023/12/11 12:52:25;;;;;;;;;;;;;;;10.99;55.22;94951.22;5116748;28;1036;-60
2023/12/11 12:54:53;;;;;;;;;;;;;;;10.95;55.75;94937.34;5115743;28;1114;-60
2023/12/11 12:57:19;;;;;;;;;;;;;;;10.96;54.90;94932.81;5116820;28;1027;-60
2023/12/11 12:59:46;;;;;;;;;;;;;;;11.09;55.00;94930.47;5116932;28;1070;-60
2023/12/11 13:02:13;;;;;;;;;;;;;;;11.19;54.79;94909.69;5115455;28;1023;-60
2023/12/11 13:04:49;;;;;;;;;;;;;;;11.07;56.07;94906.53;5116862;28;1186;-60
2023/12/11 13:07:15;;;;;;;;;;;;;;;11.13;55.84;94919.25;5116314;28;1909;-60
2023/12/11 13:09:41;;;;;;;;;;;;;;;11.28;55.09;94926.56;5116544;28;1059;-61
2023/12/11 13:12:07;;;;;;;;;;;;;;;11.40;55.86;94935.94;5116642;28;1059;-60
2023/12/11 13:14:33;;;;;;;;;;;;;;;11.40;57.79;94927.91;5115279;28;1036;-60
2023/12/11 13:16:59;;;;;;;;;;;;;;;11.44;56.97;94923.00;5116273;28;1048;-61
2023/12/11 13:19:26;;;;;;;;;;;;;;;11.45;57.14;94927.38;5115070;28;1048;-60
2023/12/11 13:21:52;;;;;;;;;;;;;;;11.36;55.21;94934.56;5116451;28;968;-60
2023/12/11 13:24:18;;;;;;;;;;;;;;;11.40;55.94;94943.09;5116120;28;1012;-61
2023/12/11 13:26:44;;;;;;;;;;;;;;;11.39;55.73;94950.31;5116403;28;1050;-61
2023/12/11 13:29:10;;;;;;;;;;;;;;;11.13;56.70;94932.63;5115805;28;1905;-61
2023/12/11 13:31:36;;;;;;;;;;;;;;;10.97;57.06;94929.16;5116349;28;996;-60
2023/12/11 13:34:02;;;;;;;;;;;;;;;11.02;57.31;94933.00;5115897;28;980;-60
2023/12/11 13:36:28;;;;;;;;;;;;;;;11.06;56.36;94938.81;5116071;28;1055;-61
2023/12/11 13:38:54;;;;;;;;;;;;;;;10.97;56.95;94942.53;5116231;27;1062;-61
2023/12/11 13:41:21;;;;;;;;;;;;;;;10.98;56.58;94953.03;5114507;28;1249;-61
2023/12/11 13:43:47;;;;;;;;;;;;;;;11.14;56.89;94962.91;5114653;28;1041;-60
2023/12/11 13:46:13;;;;;;;;;;;;;;;11.21;56.00;94958.56;5114630;28;1048;-61
2023/12/11 13:48:39;;;;;;;;;;;;;;;11.26;55.81;94958.84;5115951;28;1906;-61
2023/12/11 13:51:08;;;;;;;;;;;;;;;11.30;56.48;94954.00;5115968;28;1048;-61
2023/12/11 13:53:35;;;;;;;;;;;;;;;11.35;55.26;94956.19;5115336;28;1177;-60
2023/12/11 13:56:01;;;;;;;;;;;;;;;11.39;55.65;94962.88;5115786;28;1035;-60
2023/12/11 13:58:27;;;;;;;;;;;;;;;11.38;58.56;94945.13;5115372;28;1138;-60
2023/12/11 14:00:53;;;;;;;;;;;;;;;11.37;57.27;94963.03;5115749;27;992;-61
2023/12/11 14:03:22;;;;;;;;;;;;;;;11.33;57.65;94953.66;5115749;27;995;-61
2023/12/11 14:05:49;;;;;;;;;;;;;;;11.23;58.67;94955.69;5114510;28;1051;-61
2023/12/11 14:08:15;;;;;;;;;;;;;;;11.03;60.38;94958.72;5115209;28;1910;-61
2023/12/11 14:10:42;;;;;;;;;;;;;;;10.82;61.03;94958.41;5115460;28;965;-61
2023/12/11 14:13:12;;;;;;;;;;;;;;;10.52;63.07;94964.22;5115142;28;1047;-61
2023/12/11 14:15:39;;;;;;;;;;;;;;;10.39;63.56;94960.38;5115773;28;975;-62
2023/12/11 14:18:05;;;;;;;;;;;;;;;10.24;64.37;94968.16;5115413;28;957;-63